createdAt,value
2018-08-30T00:02:25.072Z,9.93
2018-08-30T00:04:53.097Z,9.60
2018-08-30T00:07:21.008Z,9.03
2018-08-30T00:09:48.659Z,9.80
2018-08-30T00:12:16.389Z,10.63
2018-08-30T00:14:44.355Z,9.27
2018-08-30T00:17:12.021Z,9.80
2018-08-30T00:19:39.663Z,10.03
2018-08-30T00:22:07.298Z,9.90
2018-08-30T00:24:35.625Z,10.57
2018-08-30T00:27:03.787Z,10.00
2018-08-30T00:29:31.393Z,9.23
2018-08-30T00:31:59.302Z,10.27
2018-08-30T00:34:27.385Z,10.13
2018-08-30T00:36:55.309Z,9.83
2018-08-30T00:39:22.993Z,8.47
2018-08-30T00:41:50.676Z,9.53
2018-08-30T00:44:18.277Z,8.60
2018-08-30T00:46:46.239Z,8.97
2018-08-30T00:49:13.917Z,8.60
2018-08-30T00:51:41.813Z,8.10
2018-08-30T00:54:09.811Z,9.20
2018-08-30T00:56:37.424Z,8.47
2018-08-30T00:59:05.393Z,7.70
2018-08-30T01:01:33.333Z,8.77
2018-08-30T01:04:01.255Z,9.57
2018-08-30T01:06:28.970Z,7.97
2018-08-30T01:08:56.716Z,8.33
2018-08-30T01:11:24.727Z,8.13
2018-08-30T01:13:52.630Z,9.20
2018-08-30T01:16:20.238Z,8.80
2018-08-30T01:18:48.361Z,7.97
2018-08-30T01:21:16.230Z,7.43
2018-08-30T01:23:43.917Z,8.97
2018-08-30T01:26:11.656Z,8.63
2018-08-30T01:28:39.349Z,8.10
2018-08-30T01:31:07.221Z,8.73
2018-08-30T01:33:34.931Z,7.70
2018-08-30T01:36:02.972Z,9.10
2018-08-30T01:38:30.728Z,9.17
2018-08-30T01:40:58.794Z,8.17
2018-08-30T01:43:26.521Z,7.80
2018-08-30T01:45:54.449Z,7.60
2018-08-30T01:48:22.620Z,7.77
2018-08-30T01:50:50.261Z,8.63
2018-08-30T01:53:18.057Z,8.80
2018-08-30T01:55:45.697Z,9.40
2018-08-30T01:58:13.348Z,8.30
2018-08-30T02:00:41.013Z,8.53
2018-08-30T02:03:08.934Z,7.90
2018-08-30T02:05:37.063Z,7.50
2018-08-30T02:08:04.716Z,8.97
2018-08-30T02:10:32.811Z,9.77
2018-08-30T02:13:00.417Z,8.57
2018-08-30T02:15:28.394Z,7.80
2018-08-30T02:17:56.122Z,8.30
2018-08-30T02:20:23.766Z,8.20
2018-08-30T02:22:51.468Z,7.70
2018-08-30T02:25:19.328Z,8.90
2018-08-30T02:27:46.928Z,8.80
2018-08-30T02:30:14.677Z,9.23
2018-08-30T02:32:42.312Z,8.30
2018-08-30T02:35:10.005Z,7.57
2018-08-30T02:37:37.910Z,8.60
2018-08-30T02:40:05.774Z,9.73
2018-08-30T02:42:33.450Z,9.77
2018-08-30T02:45:01.426Z,9.10
2018-08-30T02:47:29.220Z,9.10
2018-08-30T02:49:57.547Z,8.20
2018-08-30T02:52:25.285Z,8.40
2018-08-30T02:54:52.935Z,8.93
2018-08-30T02:57:20.894Z,8.20
2018-08-30T02:59:48.505Z,8.90
2018-08-30T03:02:16.499Z,8.17
2018-08-30T03:04:44.105Z,9.10
2018-08-30T03:07:11.917Z,8.10
2018-08-30T03:09:39.540Z,9.57
2018-08-30T03:12:07.476Z,8.67
2018-08-30T03:14:35.217Z,9.10
2018-08-30T03:17:02.914Z,8.30
2018-08-30T03:19:30.835Z,7.90
2018-08-30T03:21:58.553Z,7.67
2018-08-30T03:24:26.538Z,8.53
2018-08-30T03:26:54.585Z,8.20
2018-08-30T03:29:22.518Z,7.90
2018-08-30T03:31:50.165Z,9.27
2018-08-30T03:34:17.800Z,7.50
2018-08-30T03:36:45.441Z,7.97
2018-08-30T03:39:13.109Z,8.00
2018-08-30T03:41:40.741Z,8.87
2018-08-30T03:44:08.580Z,8.07
2018-08-30T03:46:36.203Z,7.47
2018-08-30T03:49:04.374Z,7.40
2018-08-30T03:51:32.054Z,8.50
2018-08-30T03:53:59.966Z,6.77
2018-08-30T03:56:27.603Z,7.80
2018-08-30T03:58:55.290Z,7.00
2018-08-30T04:01:24.023Z,7.70
2018-08-30T04:03:51.727Z,6.47
2018-08-30T04:06:19.378Z,6.73
2018-08-30T04:08:47.072Z,7.50
2018-08-30T04:11:14.749Z,6.37
2018-08-30T04:13:42.945Z,6.50
2018-08-30T04:16:11.174Z,5.67
2018-08-30T04:18:38.797Z,6.67
2018-08-30T04:21:06.775Z,6.20
2018-08-30T04:23:34.490Z,6.00
2018-08-30T04:26:02.764Z,5.80
2018-08-30T04:28:30.408Z,6.13
2018-08-30T04:30:58.296Z,6.70
2018-08-30T04:33:26.245Z,6.60
2018-08-30T04:35:53.825Z,6.20
2018-08-30T04:38:21.510Z,5.97
2018-08-30T04:40:49.384Z,6.57
2018-08-30T04:43:17.057Z,5.57
2018-08-30T04:45:45.229Z,6.17
2018-08-30T04:48:12.841Z,7.80
2018-08-30T04:50:40.618Z,7.53
2018-08-30T04:53:08.596Z,6.60
2018-08-30T04:55:36.859Z,6.87
2018-08-30T04:58:04.662Z,6.50
2018-08-30T05:00:33.603Z,7.30
2018-08-30T05:03:02.103Z,7.80
2018-08-30T05:05:30.078Z,7.00
2018-08-30T05:07:58.721Z,7.37
2018-08-30T05:10:26.460Z,6.67
2018-08-30T05:12:54.728Z,6.97
2018-08-30T05:15:22.718Z,7.20
2018-08-30T05:17:50.410Z,6.90
2018-08-30T05:20:18.037Z,6.70
2018-08-30T05:22:46.255Z,6.40
2018-08-30T05:25:13.949Z,5.90
2018-08-30T05:27:41.984Z,7.07
2018-08-30T05:30:09.858Z,6.40
2018-08-30T05:32:37.566Z,6.10
2018-08-30T05:35:05.657Z,6.70
2018-08-30T05:37:33.310Z,7.70
2018-08-30T05:40:01.031Z,7.40
2018-08-30T05:42:29.182Z,7.67
2018-08-30T05:44:57.206Z,7.60
2018-08-30T05:47:24.916Z,7.70
2018-08-30T05:49:52.594Z,7.63
2018-08-30T05:52:20.305Z,7.13
2018-08-30T05:54:48.009Z,7.60
2018-08-30T05:57:15.690Z,6.90
2018-08-30T05:59:43.685Z,7.60
2018-08-30T06:02:11.405Z,6.90
2018-08-30T06:04:39.093Z,7.10
2018-08-30T06:07:07.120Z,6.73
2018-08-30T06:09:35.670Z,6.80
2018-08-30T06:12:03.497Z,6.80
2018-08-30T06:14:31.116Z,7.47
2018-08-30T06:16:58.973Z,6.87
2018-08-30T06:19:26.718Z,6.73
2018-08-30T06:21:54.420Z,6.90
2018-08-30T06:24:22.067Z,7.50
2018-08-30T06:26:49.898Z,7.30
2018-08-30T06:29:17.625Z,7.90
2018-08-30T06:31:45.271Z,6.80
2018-08-30T06:34:13.277Z,7.57
2018-08-30T06:36:41.301Z,8.83
2018-08-30T06:39:09.199Z,7.40
2018-08-30T06:41:36.887Z,8.63
2018-08-30T06:44:04.556Z,7.73
2018-08-30T06:46:32.554Z,8.27
2018-08-30T06:49:00.508Z,8.93
2018-08-30T06:51:28.308Z,7.40
2018-08-30T06:53:56.300Z,7.00
2018-08-30T06:56:23.997Z,7.20
2018-08-30T06:58:51.864Z,7.77
2018-08-30T07:01:20.041Z,8.10
2018-08-30T07:03:47.715Z,6.40
2018-08-30T07:06:15.466Z,8.07
2018-08-30T07:08:43.092Z,7.37
2018-08-30T07:11:10.697Z,8.23
2018-08-30T07:13:38.701Z,7.67
2018-08-30T07:16:07.141Z,8.03
2018-08-30T07:18:34.821Z,7.90
2018-08-30T07:21:03.101Z,7.53
2018-08-30T07:23:31.335Z,8.30
2018-08-30T07:25:59.270Z,8.60
2018-08-30T07:28:27.298Z,7.93
2018-08-30T07:30:55.576Z,7.97
2018-08-30T07:33:23.526Z,8.57
2018-08-30T07:35:51.429Z,6.57
2018-08-30T07:38:19.106Z,7.47
2018-08-30T07:40:47.148Z,8.57
2018-08-30T07:43:14.792Z,7.73
2018-08-30T07:45:42.661Z,7.70
2018-08-30T07:48:10.874Z,7.63
2018-08-30T07:50:38.501Z,8.13
2018-08-30T07:53:06.807Z,7.83
2018-08-30T07:55:34.459Z,7.63
2018-08-30T07:58:02.157Z,8.40
2018-08-30T08:00:30.797Z,7.77
2018-08-30T08:02:58.829Z,7.93
2018-08-30T08:05:26.817Z,7.80
2018-08-30T08:07:54.554Z,9.00
2018-08-30T08:10:22.420Z,8.17
2018-08-30T08:12:50.124Z,8.20
2018-08-30T08:15:18.173Z,8.27
2018-08-30T08:17:46.306Z,8.80
2018-08-30T08:20:13.977Z,8.47
2018-08-30T08:22:42.269Z,7.20
2018-08-30T08:25:09.982Z,7.60
2018-08-30T08:27:37.657Z,7.80
2018-08-30T08:30:05.506Z,6.90
2018-08-30T08:32:33.109Z,7.27
2018-08-30T08:35:00.752Z,7.00
2018-08-30T08:37:28.808Z,7.30
2018-08-30T08:39:56.938Z,8.20
2018-08-30T08:42:24.662Z,8.00
2018-08-30T08:44:52.340Z,6.97
2018-08-30T08:47:20.030Z,6.90
2018-08-30T08:49:54.300Z,6.60
2018-08-30T08:52:22.509Z,8.10
2018-08-30T08:54:50.499Z,6.93
2018-08-30T08:57:18.427Z,7.20
2018-08-30T08:59:46.250Z,7.20
2018-08-30T09:02:14.205Z,7.97
2018-08-30T09:04:41.857Z,7.30
2018-08-30T09:07:09.896Z,7.87
2018-08-30T09:09:37.517Z,7.10
2018-08-30T09:12:05.225Z,7.97
2018-08-30T09:14:32.928Z,8.53
2018-08-30T09:17:00.530Z,7.63
2018-08-30T09:19:28.484Z,7.33
2018-08-30T09:21:56.260Z,7.80
2018-08-30T09:24:24.425Z,7.87
2018-08-30T09:26:52.707Z,8.57
2018-08-30T09:29:20.572Z,6.80
2018-08-30T09:31:48.222Z,8.80
2018-08-30T09:34:15.828Z,8.03
2018-08-30T09:36:43.503Z,7.27
2018-08-30T09:39:11.793Z,6.93
2018-08-30T09:41:39.438Z,7.43
2018-08-30T09:44:07.110Z,7.30
2018-08-30T09:46:34.817Z,7.00
2018-08-30T09:49:03.226Z,7.43
2018-08-30T09:51:30.877Z,6.20
2018-08-30T09:53:58.485Z,6.80
2018-08-30T09:56:26.746Z,7.50
2018-08-30T09:58:54.515Z,6.63
2018-08-30T10:01:27.679Z,8.20
2018-08-30T10:03:55.441Z,6.83
2018-08-30T10:06:23.040Z,7.50
2018-08-30T10:08:51.201Z,7.80
2018-08-30T10:11:19.207Z,7.53
2018-08-30T10:13:47.232Z,6.93
2018-08-30T10:16:15.143Z,7.50
2018-08-30T10:18:42.830Z,6.23
2018-08-30T10:21:11.009Z,8.10
2018-08-30T10:23:44.693Z,7.03
2018-08-30T10:26:12.881Z,7.00
2018-08-30T10:28:40.908Z,7.00
2018-08-30T10:31:09.183Z,7.60
2018-08-30T10:33:37.312Z,6.73
2018-08-30T10:36:05.031Z,6.47
2018-08-30T10:38:32.770Z,7.40
2018-08-30T10:41:00.708Z,6.50
2018-08-30T10:43:28.771Z,7.07
2018-08-30T10:45:57.053Z,6.03
2018-08-30T10:48:25.426Z,7.07
2018-08-30T10:50:53.282Z,7.00
2018-08-30T10:53:21.820Z,6.33
2018-08-30T10:55:49.721Z,6.43
2018-08-30T10:58:17.773Z,7.47
2018-08-30T11:00:45.644Z,7.00
2018-08-30T11:03:13.981Z,6.73
2018-08-30T11:05:41.894Z,6.40
2018-08-30T11:08:09.785Z,8.10
2018-08-30T11:10:37.869Z,7.70
2018-08-30T11:13:05.908Z,7.83
2018-08-30T11:15:33.767Z,10.30
2018-08-30T11:18:01.493Z,11.60
2018-08-30T11:20:29.520Z,10.47
2018-08-30T11:22:57.597Z,10.30
2018-08-30T11:25:25.551Z,10.03
2018-08-30T11:27:53.469Z,10.03
2018-08-30T11:30:21.668Z,10.70
2018-08-30T11:32:49.856Z,11.03
2018-08-30T11:35:17.774Z,11.53
2018-08-30T11:37:45.890Z,9.93
2018-08-30T11:40:13.967Z,13.03
2018-08-30T11:42:41.935Z,12.87
2018-08-30T11:45:10.019Z,9.90
2018-08-30T11:47:38.221Z,10.90
2018-08-30T11:50:06.092Z,11.20
2018-08-30T11:52:33.853Z,9.70
2018-08-30T11:55:02.119Z,10.37
2018-08-30T11:57:29.746Z,9.67
2018-08-30T11:59:57.398Z,10.80
2018-08-30T12:02:25.461Z,10.23
2018-08-30T12:04:53.085Z,8.70
2018-08-30T12:07:20.746Z,9.97
2018-08-30T12:09:48.964Z,9.83
2018-08-30T12:12:16.624Z,9.60
2018-08-30T12:14:44.271Z,8.70
2018-08-30T12:17:11.914Z,7.63
2018-08-30T12:19:39.811Z,6.80
2018-08-30T12:22:07.474Z,7.27
2018-08-30T12:24:35.648Z,7.00
2018-08-30T12:27:03.341Z,7.10
2018-08-30T12:29:31.039Z,6.00
2018-08-30T12:31:59.146Z,5.63
2018-08-30T12:34:26.970Z,6.17
2018-08-30T12:36:55.499Z,6.27
2018-08-30T12:39:23.714Z,5.43
2018-08-30T12:41:51.775Z,6.00
2018-08-30T12:44:19.410Z,5.17
2018-08-30T12:46:47.405Z,5.53
2018-08-30T12:49:15.077Z,4.93
2018-08-30T12:51:43.717Z,4.97
2018-08-30T12:54:12.035Z,4.30
2018-08-30T12:56:39.780Z,4.90
2018-08-30T12:59:13.039Z,5.07
2018-08-30T13:01:41.044Z,4.40
2018-08-30T13:04:09.055Z,4.10
2018-08-30T13:06:41.203Z,4.70
2018-08-30T13:09:09.111Z,4.23
2018-08-30T13:11:37.031Z,4.00
2018-08-30T13:14:04.764Z,4.63
2018-08-30T13:16:32.654Z,4.20
2018-08-30T13:19:00.371Z,3.63
2018-08-30T13:21:28.484Z,3.47
2018-08-30T13:23:56.089Z,3.77
2018-08-30T13:26:24.018Z,3.00
2018-08-30T13:28:51.687Z,3.80
2018-08-30T13:31:20.002Z,3.30
2018-08-30T13:33:47.939Z,3.40
2018-08-30T13:36:15.765Z,4.40
2018-08-30T13:38:43.553Z,3.40
2018-08-30T13:41:12.025Z,3.47
2018-08-30T13:43:39.551Z,3.63
2018-08-30T13:46:08.044Z,4.47
2018-08-30T13:48:35.644Z,3.60
2018-08-30T13:51:03.467Z,3.83
2018-08-30T13:53:30.919Z,3.10
2018-08-30T13:55:59.157Z,3.27
2018-08-30T13:58:27.054Z,2.70
2018-08-30T14:00:54.554Z,3.30
2018-08-30T14:03:22.672Z,3.73
2018-08-30T14:05:50.900Z,2.80
2018-08-30T14:08:18.559Z,2.93
2018-08-30T14:10:46.181Z,3.00
2018-08-30T14:13:13.989Z,2.87
2018-08-30T14:15:41.564Z,4.00
2018-08-30T14:18:09.612Z,2.97
2018-08-30T14:20:37.666Z,3.83
2018-08-30T14:23:05.356Z,3.60
2018-08-30T14:25:33.048Z,3.83
2018-08-30T14:28:00.961Z,2.60
2018-08-30T14:30:29.291Z,2.93
2018-08-30T14:32:57.081Z,2.90
2018-08-30T14:35:24.767Z,2.93
2018-08-30T14:37:52.700Z,2.40
2018-08-30T14:40:20.531Z,2.80
2018-08-30T14:42:48.716Z,2.53
2018-08-30T14:45:16.686Z,3.27
2018-08-30T14:47:45.059Z,2.67
2018-08-30T14:50:13.111Z,3.03
2018-08-30T14:52:40.938Z,2.73
2018-08-30T14:55:08.744Z,3.07
2018-08-30T14:57:36.587Z,2.33
2018-08-30T15:00:04.217Z,2.87
2018-08-30T15:02:32.094Z,2.67
2018-08-30T15:04:59.761Z,2.90
2018-08-30T15:07:27.414Z,3.20
2018-08-30T15:09:55.070Z,2.77
2018-08-30T15:12:22.744Z,2.70
2018-08-30T15:14:51.025Z,3.70
2018-08-30T15:17:19.832Z,3.07
2018-08-30T15:19:47.522Z,3.20
2018-08-30T15:22:15.300Z,2.43
2018-08-30T15:24:43.320Z,2.47
2018-08-30T15:27:11.344Z,3.30
2018-08-30T15:29:39.026Z,2.80
2018-08-30T15:32:06.679Z,2.80
2018-08-30T15:34:34.472Z,2.53
2018-08-30T15:37:03.220Z,2.07
2018-08-30T15:39:30.826Z,2.90
2018-08-30T15:41:58.886Z,3.73
2018-08-30T15:44:26.709Z,3.93
2018-08-30T15:46:54.418Z,2.77
2018-08-30T15:49:22.052Z,2.90
2018-08-30T15:51:50.115Z,2.30
2018-08-30T15:54:18.010Z,2.77
2018-08-30T15:56:45.710Z,2.17
2018-08-30T15:59:13.426Z,2.47
2018-08-30T16:01:41.457Z,2.37
2018-08-30T16:04:09.117Z,2.97
2018-08-30T16:06:36.723Z,2.30
2018-08-30T16:09:06.903Z,2.50
2018-08-30T16:11:34.600Z,2.80
2018-08-30T16:14:02.268Z,3.70
2018-08-30T16:16:29.911Z,2.83
2018-08-30T16:18:57.967Z,2.43
2018-08-30T16:21:25.721Z,2.60
2018-08-30T16:23:54.082Z,2.27
2018-08-30T16:26:21.725Z,3.27
2018-08-30T16:28:50.146Z,2.70
2018-08-30T16:31:18.168Z,2.73
2018-08-30T16:33:46.080Z,3.00
2018-08-30T16:36:13.849Z,2.90
2018-08-30T16:38:41.788Z,2.20
2018-08-30T16:41:09.609Z,2.47
2018-08-30T16:43:37.759Z,3.17
2018-08-30T16:46:05.431Z,3.23
2018-08-30T16:48:33.782Z,3.43
2018-08-30T16:51:01.493Z,2.60
2018-08-30T16:53:29.470Z,2.17
2018-08-30T16:55:57.146Z,2.50
2018-08-30T16:58:24.816Z,3.33
2018-08-30T17:00:52.788Z,2.50
2018-08-30T17:03:20.496Z,3.10
2018-08-30T17:05:48.620Z,2.73
2018-08-30T17:08:16.889Z,2.60
2018-08-30T17:10:44.548Z,2.37
2018-08-30T17:13:12.293Z,2.67
2018-08-30T17:15:41.302Z,2.93
2018-08-30T17:18:09.288Z,2.87
2018-08-30T17:20:43.208Z,3.67
2018-08-30T17:23:11.877Z,2.73
2018-08-30T17:25:40.261Z,2.87
2018-08-30T17:28:08.642Z,2.97
2018-08-30T17:30:36.723Z,2.60
2018-08-30T17:33:04.764Z,2.53
2018-08-30T17:35:32.578Z,3.10
2018-08-30T17:38:01.007Z,2.60
2018-08-30T17:40:28.758Z,2.70
2018-08-30T17:42:56.536Z,2.13
2018-08-30T17:45:35.650Z,2.87
2018-08-30T17:48:05.703Z,2.33
2018-08-30T17:50:34.644Z,2.10
2018-08-30T17:53:02.871Z,2.60
2018-08-30T17:55:30.952Z,2.83
2018-08-30T17:57:59.140Z,2.40
2018-08-30T18:00:26.836Z,1.87
2018-08-30T18:02:54.702Z,2.73
2018-08-30T18:05:22.396Z,2.77
2018-08-30T18:07:50.355Z,3.00
2018-08-30T18:10:18.064Z,2.60
2018-08-30T18:12:45.739Z,2.07
2018-08-30T18:15:14.705Z,2.70
2018-08-30T18:17:43.257Z,2.53
2018-08-30T18:20:11.011Z,2.47
2018-08-30T18:22:38.785Z,2.90
2018-08-30T18:25:06.742Z,2.13
2018-08-30T18:27:34.411Z,2.57
2018-08-30T18:30:02.137Z,2.10
2018-08-30T18:32:29.855Z,2.83
2018-08-30T18:34:57.553Z,2.90
2018-08-30T18:37:25.441Z,2.07
2018-08-30T18:39:53.485Z,3.00
2018-08-30T18:42:21.576Z,2.47
2018-08-30T18:44:49.651Z,2.90
2018-08-30T18:47:17.580Z,3.10
2018-08-30T18:49:45.444Z,2.20
2018-08-30T18:52:13.482Z,2.77
2018-08-30T18:54:41.547Z,3.20
2018-08-30T18:57:09.868Z,2.70
2018-08-30T18:59:37.631Z,2.30
2018-08-30T19:02:05.357Z,2.70
2018-08-30T19:04:33.058Z,2.20
2018-08-30T19:07:00.988Z,2.10
2018-08-30T19:09:29.431Z,2.20
2018-08-30T19:11:57.369Z,2.50
2018-08-30T19:14:25.099Z,2.30
2018-08-30T19:16:58.478Z,2.47
2018-08-30T19:19:27.053Z,1.83
2018-08-30T19:21:55.147Z,2.37
2018-08-30T19:24:28.830Z,1.87
2018-08-30T19:26:56.837Z,2.67
2018-08-30T19:29:25.039Z,2.17
2018-08-30T19:31:52.842Z,3.13
2018-08-30T19:34:21.180Z,2.30
2018-08-30T19:36:49.399Z,2.70
2018-08-30T19:39:17.264Z,2.27
2018-08-30T19:41:45.624Z,2.60
2018-08-30T19:44:14.006Z,2.40
2018-08-30T19:46:42.102Z,2.13
2018-08-30T19:49:10.065Z,2.33
2018-08-30T19:51:38.432Z,2.03
2018-08-30T19:54:07.180Z,1.83
2018-08-30T19:56:35.729Z,2.30
2018-08-30T19:59:04.061Z,3.00
2018-08-30T20:01:32.244Z,2.20
2018-08-30T20:04:00.686Z,2.17
2018-08-30T20:06:28.500Z,2.37
2018-08-30T20:08:57.593Z,2.20
2018-08-30T20:11:25.946Z,2.00
2018-08-30T20:13:54.398Z,2.60
2018-08-30T20:16:22.569Z,1.93
2018-08-30T20:18:50.361Z,2.77
2018-08-30T20:21:18.648Z,2.00
2018-08-30T20:23:46.934Z,2.47
2018-08-30T20:26:14.866Z,2.13
2018-08-30T20:28:42.736Z,1.90
2018-08-30T20:31:11.065Z,2.10
2018-08-30T20:33:39.711Z,2.23
2018-08-30T20:36:07.508Z,1.93
2018-08-30T20:38:35.867Z,2.50
2018-08-30T20:41:03.716Z,2.93
2018-08-30T20:43:31.807Z,1.97
2018-08-30T20:46:00.177Z,2.20
2018-08-30T20:48:28.157Z,2.20
2018-08-30T20:50:57.071Z,2.50
2018-08-30T20:53:25.188Z,2.30
2018-08-30T20:55:53.624Z,2.00
2018-08-30T20:58:21.911Z,2.00
2018-08-30T21:00:50.151Z,2.53
2018-08-30T21:03:18.424Z,2.60
2018-08-30T21:05:46.722Z,2.13
2018-08-30T21:08:15.247Z,2.33
2018-08-30T21:10:43.428Z,1.90
2018-08-30T21:13:11.415Z,2.27
2018-08-30T21:15:39.724Z,1.77
2018-08-30T21:18:09.220Z,2.03
2018-08-30T21:20:37.505Z,1.70
2018-08-30T21:23:06.184Z,2.63
2018-08-30T21:25:34.429Z,2.00
2018-08-30T21:28:02.329Z,2.60
2018-08-30T21:30:30.283Z,2.70
2018-08-30T21:32:59.227Z,2.17
2018-08-30T21:35:27.340Z,2.30
2018-08-30T21:37:55.201Z,2.40
2018-08-30T21:40:23.059Z,2.80
2018-08-30T21:42:51.355Z,2.00
2018-08-30T21:45:19.347Z,2.13
2018-08-30T21:47:47.676Z,2.90
2018-08-30T21:50:15.616Z,2.30
2018-08-30T21:52:43.599Z,2.50
2018-08-30T21:55:11.576Z,2.20
2018-08-30T21:57:39.492Z,2.60
2018-08-30T22:00:07.444Z,3.70
2018-08-30T22:02:35.872Z,2.47
2018-08-30T22:05:04.039Z,2.10
2018-08-30T22:07:32.907Z,2.40
2018-08-30T22:10:01.763Z,2.70
2018-08-30T22:12:29.712Z,2.10
2018-08-30T22:14:58.212Z,2.13
2018-08-30T22:17:26.429Z,2.20
2018-08-30T22:19:54.546Z,2.30
2018-08-30T22:22:22.605Z,2.23
2018-08-30T22:24:50.877Z,2.70
2018-08-30T22:27:18.960Z,2.47
2018-08-30T22:29:46.874Z,2.10
2018-08-30T22:32:14.990Z,1.97
2018-08-30T22:34:43.300Z,2.40
2018-08-30T22:37:11.125Z,3.53
2018-08-30T22:39:39.516Z,2.00
2018-08-30T22:42:07.874Z,2.73
2018-08-30T22:44:36.388Z,2.20
2018-08-30T22:47:04.512Z,2.03
2018-08-30T22:49:32.221Z,2.30
2018-08-30T22:52:00.518Z,2.60
2018-08-30T22:54:28.321Z,2.00
2018-08-30T22:56:56.589Z,3.07
2018-08-30T22:59:24.439Z,2.40
2018-08-30T23:01:52.226Z,2.30
2018-08-30T23:04:20.049Z,2.43
2018-08-30T23:06:48.736Z,2.80
2018-08-30T23:09:16.514Z,3.30
2018-08-30T23:11:44.295Z,1.90
2018-08-30T23:14:12.423Z,2.67
2018-08-30T23:16:41.168Z,1.87
2018-08-30T23:19:08.975Z,2.40
2018-08-30T23:21:37.188Z,2.03
2018-08-30T23:24:05.358Z,2.70
2018-08-30T23:26:33.405Z,2.23
2018-08-30T23:29:01.153Z,1.83
2018-08-30T23:31:29.154Z,2.17
2018-08-30T23:33:57.099Z,2.60
2018-08-30T23:36:24.836Z,2.70
2018-08-30T23:38:53.041Z,1.80
2018-08-30T23:41:20.713Z,2.40
2018-08-30T23:43:48.463Z,2.63
2018-08-30T23:46:16.137Z,2.47
2018-08-30T23:48:44.467Z,2.80
2018-08-30T23:51:12.175Z,2.40
2018-08-30T23:53:39.821Z,2.20
2018-08-30T23:56:07.570Z,1.97
2018-08-30T23:58:46.446Z,2.00
